sensor_id;sensor_type;location;lat;lon;timestamp;pressure;altitude;pressure_sealevel;temperature;humidity
48204;BME280;33994;50.998;5.864;2022-12-29T00:01:15;99753.66;;;9.72;100.00
48204;BME280;33994;50.998;5.864;2022-12-29T00:04:18;99738.06;;;9.70;100.00
48204;BME280;33994;50.998;5.864;2022-12-29T00:07:23;99733.59;;;9.74;100.00
48204;BME280;33994;50.998;5.864;2022-12-29T00:10:26;99724.06;;;9.73;100.00
48204;BME280;33994;50.998;5.864;2022-12-29T00:13:29;99731.91;;;9.73;100.00
48204;BME280;33994;50.998;5.864;2022-12-29T00:16:33;99723.16;;;9.74;100.00
48204;BME280;33994;50.998;5.864;2022-12-29T00:19:37;99712.63;;;9.77;100.00
48204;BME280;33994;50.998;5.864;2022-12-29T00:22:41;99709.03;;;9.81;100.00
48204;BME280;33994;50.998;5.864;2022-12-29T00:25:45;99704.56;;;9.85;99.46
48204;BME280;33994;50.998;5.864;2022-12-29T00:28:48;99694.03;;;9.88;98.86
48204;BME280;33994;50.998;5.864;2022-12-29T00:31:52;99701.72;;;9.92;98.16
48204;BME280;33994;50.998;5.864;2022-12-29T00:34:55;99703.38;;;9.95;97.62
48204;BME280;33994;50.998;5.864;2022-12-29T00:38:02;99698.03;;;10.00;96.85
48204;BME280;33994;50.998;5.864;2022-12-29T00:41:06;99694.44;;;10.02;96.45
48204;BME280;33994;50.998;5.864;2022-12-29T00:44:12;99683.06;;;10.05;95.91
48204;BME280;33994;50.998;5.864;2022-12-29T00:47:16;99691.66;;;10.08;95.54
48204;BME280;33994;50.998;5.864;2022-12-29T00:50:19;99704.63;;;10.11;95.28
48204;BME280;33994;50.998;5.864;2022-12-29T00:53:23;99702.88;;;10.12;95.21
48204;BME280;33994;50.998;5.864;2022-12-29T00:56:26;99702.88;;;10.12;94.96
48204;BME280;33994;50.998;5.864;2022-12-29T00:59:29;99694.13;;;10.13;94.87
48204;BME280;33994;50.998;5.864;2022-12-29T01:02:32;99705.41;;;10.15;94.62
48204;BME280;33994;50.998;5.864;2022-12-29T01:05:35;99698.44;;;10.14;94.25
48204;BME280;33994;50.998;5.864;2022-12-29T01:08:40;99688.91;;;10.13;93.92
48204;BME280;33994;50.998;5.864;2022-12-29T01:11:43;99677.59;;;10.12;93.51
48204;BME280;33994;50.998;5.864;2022-12-29T01:14:47;99683.66;;;10.13;93.15
48204;BME280;33994;50.998;5.864;2022-12-29T01:17:50;99675.91;;;10.11;92.82
48204;BME280;33994;50.998;5.864;2022-12-29T01:20:58;99673.28;;;10.11;92.16
48204;BME280;33994;50.998;5.864;2022-12-29T01:24:03;99667.16;;;10.12;91.98
48204;BME280;33994;50.998;5.864;2022-12-29T01:27:07;99654.16;;;10.11;91.82
48204;BME280;33994;50.998;5.864;2022-12-29T01:30:10;99658.47;;;10.12;91.58
48204;BME280;33994;50.998;5.864;2022-12-29T01:33:14;99669.75;;;10.12;91.06
48204;BME280;33994;50.998;5.864;2022-12-29T01:36:19;99662.84;;;10.11;90.90
48204;BME280;33994;50.998;5.864;2022-12-29T01:39:23;99657.63;;;10.10;90.48
48204;BME280;33994;50.998;5.864;2022-12-29T01:42:27;99662.84;;;10.10;90.21
48204;BME280;33994;50.998;5.864;2022-12-29T01:45:30;99672.44;;;10.11;89.83
48204;BME280;33994;50.998;5.864;2022-12-29T01:48:33;99681.13;;;10.11;89.43
48204;BME280;33994;50.998;5.864;2022-12-29T01:51:40;99674.06;;;10.13;89.08
48204;BME280;33994;50.998;5.864;2022-12-29T01:54:49;99668.75;;;10.16;88.81
48204;BME280;33994;50.998;5.864;2022-12-29T01:57:57;99672.28;;;10.15;88.61
48204;BME280;33994;50.998;5.864;2022-12-29T02:01:02;99658.38;;;10.15;88.26
48204;BME280;33994;50.998;5.864;2022-12-29T02:04:06;99672.28;;;10.15;88.38
48204;BME280;33994;50.998;5.864;2022-12-29T02:07:17;99669.56;;;10.18;87.97
48204;BME280;33994;50.998;5.864;2022-12-29T02:10:23;99661.69;;;10.20;88.19
48204;BME280;33994;50.998;5.864;2022-12-29T02:13:28;99665.13;;;10.20;88.18
48204;BME280;33994;50.998;5.864;2022-12-29T02:16:54;99667.72;;;10.22;88.05
48204;BME280;33994;50.998;5.864;2022-12-29T02:20:32;99660.75;;;10.21;88.19
48204;BME280;33994;50.998;5.864;2022-12-29T02:23:53;99657.31;;;10.20;88.71
48204;BME280;33994;50.998;5.864;2022-12-29T02:27:19;99649.53;;;10.19;89.14
48204;BME280;33994;50.998;5.864;2022-12-29T02:30:50;99643.44;;;10.18;89.10
48204;BME280;33994;50.998;5.864;2022-12-29T02:34:07;99646.91;;;10.19;89.09
48204;BME280;33994;50.998;5.864;2022-12-29T02:37:17;99645.09;;;10.21;89.07
48204;BME280;33994;50.998;5.864;2022-12-29T02:40:25;99636.31;;;10.23;88.97
48204;BME280;33994;50.998;5.864;2022-12-29T02:43:35;99644.22;;;10.22;89.07
48204;BME280;33994;50.998;5.864;2022-12-29T02:46:45;99638.16;;;10.20;89.15
48204;BME280;33994;50.998;5.864;2022-12-29T02:49:57;99637.31;;;10.19;89.65
48204;BME280;33994;50.998;5.864;2022-12-29T02:53:04;99626.03;;;10.17;90.17
48204;BME280;33994;50.998;5.864;2022-12-29T02:56:08;99620.88;;;10.16;90.37
48204;BME280;33994;50.998;5.864;2022-12-29T02:59:12;99624.28;;;10.18;90.65
48204;BME280;33994;50.998;5.864;2022-12-29T03:02:28;99616.50;;;10.16;90.93
48204;BME280;33994;50.998;5.864;2022-12-29T03:06:07;99613.88;;;10.16;91.10
48204;BME280;33994;50.998;5.864;2022-12-29T03:09:21;99609.56;;;10.15;91.05
48204;BME280;33994;50.998;5.864;2022-12-29T03:12:30;99603.44;;;10.16;90.99
48204;BME280;33994;50.998;5.864;2022-12-29T03:15:39;99603.38;;;10.18;91.09
48204;BME280;33994;50.998;5.864;2022-12-29T03:18:51;99605.09;;;10.19;91.00
48204;BME280;33994;50.998;5.864;2022-12-29T03:22:01;99611.19;;;10.19;90.91
48204;BME280;33994;50.998;5.864;2022-12-29T03:25:09;99596.28;;;10.21;90.88
48204;BME280;33994;50.998;5.864;2022-12-29T03:28:17;99592.81;;;10.21;90.76
48204;BME280;33994;50.998;5.864;2022-12-29T03:31:22;99588.41;;;10.23;90.61
48204;BME280;33994;50.998;5.864;2022-12-29T03:34:28;99584.09;;;10.22;90.55
48204;BME280;33994;50.998;5.864;2022-12-29T03:37:35;99585.00;;;10.21;90.36
48204;BME280;33994;50.998;5.864;2022-12-29T03:40:42;99591.03;;;10.23;90.31
48204;BME280;33994;50.998;5.864;2022-12-29T03:43:47;99583.13;;;10.25;90.22
48204;BME280;33994;50.998;5.864;2022-12-29T03:46:50;99575.19;;;10.28;90.20
48204;BME280;33994;50.998;5.864;2022-12-29T03:49:55;99574.41;;;10.26;90.00
48204;BME280;33994;50.998;5.864;2022-12-29T03:52:58;99571.88;;;10.22;89.51
48204;BME280;33994;50.998;5.864;2022-12-29T03:56:01;99576.31;;;10.20;89.46
48204;BME280;33994;50.998;5.864;2022-12-29T03:59:05;99559.78;;;10.20;89.35
48204;BME280;33994;50.998;5.864;2022-12-29T04:02:07;99570.22;;;10.20;89.02
48204;BME280;33994;50.998;5.864;2022-12-29T04:05:12;99580.69;;;10.20;88.54
48204;BME280;33994;50.998;5.864;2022-12-29T04:08:15;99565.00;;;10.20;88.38
48204;BME280;33994;50.998;5.864;2022-12-29T04:11:18;99598.06;;;10.21;87.68
48204;BME280;33994;50.998;5.864;2022-12-29T04:14:21;99600.56;;;10.24;87.29
48204;BME280;33994;50.998;5.864;2022-12-29T04:17:24;99590.94;;;10.26;86.81
48204;BME280;33994;50.998;5.864;2022-12-29T04:20:29;99598.56;;;10.32;86.38
48204;BME280;33994;50.998;5.864;2022-12-29T04:23:34;99613.28;;;10.35;86.32
48204;BME280;33994;50.998;5.864;2022-12-29T04:26:37;99610.63;;;10.36;86.46
48204;BME280;33994;50.998;5.864;2022-12-29T04:29:40;99613.22;;;10.36;86.50
48204;BME280;33994;50.998;5.864;2022-12-29T04:32:43;99618.44;;;10.36;86.37
48204;BME280;33994;50.998;5.864;2022-12-29T04:35:48;99631.50;;;10.38;86.33
48204;BME280;33994;50.998;5.864;2022-12-29T04:38:51;99620.06;;;10.40;86.41
48204;BME280;33994;50.998;5.864;2022-12-29T04:41:54;99624.44;;;10.40;86.38
48204;BME280;33994;50.998;5.864;2022-12-29T04:44:57;99614.84;;;10.40;86.14
48204;BME280;33994;50.998;5.864;2022-12-29T04:48:01;99614.72;;;10.43;85.88
48204;BME280;33994;50.998;5.864;2022-12-29T04:51:05;99620.88;;;10.42;85.84
48204;BME280;33994;50.998;5.864;2022-12-29T04:54:08;99629.50;;;10.44;85.42
48204;BME280;33994;50.998;5.864;2022-12-29T04:57:11;99626.84;;;10.46;84.97
48204;BME280;33994;50.998;5.864;2022-12-29T05:00:14;99633.84;;;10.45;84.90
48204;BME280;33994;50.998;5.864;2022-12-29T05:03:17;99650.41;;;10.44;84.79
48204;BME280;33994;50.998;5.864;2022-12-29T05:06:22;99651.28;;;10.45;84.63
48204;BME280;33994;50.998;5.864;2022-12-29T05:09:25;99665.22;;;10.45;84.86
48204;BME280;33994;50.998;5.864;2022-12-29T05:12:29;99671.31;;;10.44;84.77
48204;BME280;33994;50.998;5.864;2022-12-29T05:15:32;99662.59;;;10.45;84.63
48204;BME280;33994;50.998;5.864;2022-12-29T05:18:35;99666.09;;;10.44;84.44
48204;BME280;33994;50.998;5.864;2022-12-29T05:21:40;99666.06;;;10.46;84.46
48204;BME280;33994;50.998;5.864;2022-12-29T05:24:43;99672.25;;;10.43;84.33
48204;BME280;33994;50.998;5.864;2022-12-29T05:27:46;99663.59;;;10.41;84.37
48204;BME280;33994;50.998;5.864;2022-12-29T05:30:49;99655.00;;;10.38;84.47
48204;BME280;33994;50.998;5.864;2022-12-29T05:33:52;99657.66;;;10.36;84.51
48204;BME280;33994;50.998;5.864;2022-12-29T05:36:57;99657.78;;;10.33;84.33
48204;BME280;33994;50.998;5.864;2022-12-29T05:40:00;99663.03;;;10.32;84.22
48204;BME280;33994;50.998;5.864;2022-12-29T05:43:03;99650.97;;;10.28;84.17
48204;BME280;33994;50.998;5.864;2022-12-29T05:46:06;99658.88;;;10.26;84.01
48204;BME280;33994;50.998;5.864;2022-12-29T05:49:09;99652.03;;;10.22;83.79
48204;BME280;33994;50.998;5.864;2022-12-29T05:52:14;99658.25;;;10.18;83.38
48204;BME280;33994;50.998;5.864;2022-12-29T05:55:17;99666.13;;;10.16;83.52
48204;BME280;33994;50.998;5.864;2022-12-29T05:58:20;99676.66;;;10.15;83.41
48204;BME280;33994;50.998;5.864;2022-12-29T06:01:23;99674.91;;;10.14;83.26
48204;BME280;33994;50.998;5.864;2022-12-29T06:04:26;99687.09;;;10.15;83.23
48204;BME280;33994;50.998;5.864;2022-12-29T06:07:31;99687.09;;;10.15;83.12
48204;BME280;33994;50.998;5.864;2022-12-29T06:10:34;99692.34;;;10.15;82.99
48204;BME280;33994;50.998;5.864;2022-12-29T06:13:37;99688.81;;;10.16;82.98
48204;BME280;33994;50.998;5.864;2022-12-29T06:16:40;99700.09;;;10.16;82.97
48204;BME280;33994;50.998;5.864;2022-12-29T06:19:43;99708.81;;;10.17;82.97
48204;BME280;33994;50.998;5.864;2022-12-29T06:22:48;99713.19;;;10.16;82.72
48204;BME280;33994;50.998;5.864;2022-12-29T06:25:51;99728.00;;;10.16;82.95
48204;BME280;33994;50.998;5.864;2022-12-29T06:28:54;99722.06;;;10.11;82.75
48204;BME280;33994;50.998;5.864;2022-12-29T06:31:57;99725.56;;;10.10;82.79
48204;BME280;33994;50.998;5.864;2022-12-29T06:35:00;99730.78;;;10.10;82.86
48204;BME280;33994;50.998;5.864;2022-12-29T06:38:04;99731.75;;;10.07;82.92
48204;BME280;33994;50.998;5.864;2022-12-29T06:41:08;99737.00;;;10.06;82.80
48204;BME280;33994;50.998;5.864;2022-12-29T06:44:11;99737.91;;;10.05;82.81
48204;BME280;33994;50.998;5.864;2022-12-29T06:47:14;99725.75;;;10.04;82.86
48204;BME280;33994;50.998;5.864;2022-12-29T06:50:17;99747.50;;;10.04;82.57
48204;BME280;33994;50.998;5.864;2022-12-29T06:53:21;99730.13;;;10.03;82.54
48204;BME280;33994;50.998;5.864;2022-12-29T06:56:24;99743.13;;;10.05;82.01
48204;BME280;33994;50.998;5.864;2022-12-29T06:59:27;99756.16;;;10.06;81.56
48204;BME280;33994;50.998;5.864;2022-12-29T07:02:30;99763.13;;;10.06;81.74
48204;BME280;33994;50.998;5.864;2022-12-29T07:05:33;99761.50;;;10.03;81.64
48204;BME280;33994;50.998;5.864;2022-12-29T07:08:38;99757.19;;;10.01;81.47
48204;BME280;33994;50.998;5.864;2022-12-29T07:11:41;99767.72;;;9.99;81.29
48204;BME280;33994;50.998;5.864;2022-12-29T07:14:43;99772.03;;;9.98;81.18
48204;BME280;33994;50.998;5.864;2022-12-29T07:17:47;99772.94;;;9.97;81.04
48204;BME280;33994;50.998;5.864;2022-12-29T07:20:49;99777.28;;;9.98;80.90
48204;BME280;33994;50.998;5.864;2022-12-29T07:23:54;99778.16;;;9.99;80.57
48204;BME280;33994;50.998;5.864;2022-12-29T07:26:58;99778.09;;;10.01;80.52
48204;BME280;33994;50.998;5.864;2022-12-29T07:30:01;99787.63;;;10.02;80.07
48204;BME280;33994;50.998;5.864;2022-12-29T07:33:04;99781.50;;;10.03;79.69
48204;BME280;33994;50.998;5.864;2022-12-29T07:36:08;99784.09;;;10.04;79.57
48204;BME280;33994;50.998;5.864;2022-12-29T07:39:13;99790.16;;;10.05;79.49
48204;BME280;33994;50.998;5.864;2022-12-29T07:42:16;99795.56;;;9.98;79.51
48204;BME280;33994;50.998;5.864;2022-12-29T07:45:19;99791.31;;;9.94;79.63
48204;BME280;33994;50.998;5.864;2022-12-29T07:48:22;99795.75;;;9.92;79.83
48204;BME280;33994;50.998;5.864;2022-12-29T07:51:25;99782.78;;;9.89;80.68
48204;BME280;33994;50.998;5.864;2022-12-29T07:54:29;99794.22;;;9.85;80.83
48204;BME280;33994;50.998;5.864;2022-12-29T07:57:32;99803.03;;;9.81;80.88
48204;BME280;33994;50.998;5.864;2022-12-29T08:00:35;99811.00;;;9.77;81.24
48204;BME280;33994;50.998;5.864;2022-12-29T08:03:39;99823.19;;;9.76;81.38
48204;BME280;33994;50.998;5.864;2022-12-29T08:06:41;99822.28;;;9.77;81.59
48204;BME280;33994;50.998;5.864;2022-12-29T08:09:46;99827.59;;;9.74;81.75
48204;BME280;33994;50.998;5.864;2022-12-29T08:12:49;99849.34;;;9.74;82.04
48204;BME280;33994;50.998;5.864;2022-12-29T08:15:52;99839.81;;;9.72;82.45
48204;BME280;33994;50.998;5.864;2022-12-29T08:18:55;99836.41;;;9.70;82.56
48204;BME280;33994;50.998;5.864;2022-12-29T08:21:58;99832.09;;;9.69;82.67
48204;BME280;33994;50.998;5.864;2022-12-29T08:25:03;99837.41;;;9.66;82.28
48204;BME280;33994;50.998;5.864;2022-12-29T08:28:06;99849.63;;;9.64;81.73
48204;BME280;33994;50.998;5.864;2022-12-29T08:31:09;99852.22;;;9.64;81.44
48204;BME280;33994;50.998;5.864;2022-12-29T08:34:13;99854.03;;;9.62;81.21
48204;BME280;33994;50.998;5.864;2022-12-29T08:37:17;99852.34;;;9.61;81.02
48204;BME280;33994;50.998;5.864;2022-12-29T08:40:21;99855.75;;;9.63;81.01
48204;BME280;33994;50.998;5.864;2022-12-29T08:43:24;99850.53;;;9.63;80.93
48204;BME280;33994;50.998;5.864;2022-12-29T08:46:27;99850.53;;;9.63;80.72
48204;BME280;33994;50.998;5.864;2022-12-29T08:49:31;99861.81;;;9.63;80.68
48204;BME280;33994;50.998;5.864;2022-12-29T08:52:34;99861.69;;;9.68;80.63
48204;BME280;33994;50.998;5.864;2022-12-29T08:55:38;99869.50;;;9.69;80.31
48204;BME280;33994;50.998;5.864;2022-12-29T08:58:41;99868.53;;;9.72;80.01
48204;BME280;33994;50.998;5.864;2022-12-29T09:01:45;99874.66;;;9.72;79.45
48204;BME280;33994;50.998;5.864;2022-12-29T09:04:48;99874.53;;;9.77;79.01
48204;BME280;33994;50.998;5.864;2022-12-29T09:07:52;99884.78;;;9.83;78.34
48204;BME280;33994;50.998;5.864;2022-12-29T09:11:05;99885.69;;;9.82;77.29
48204;BME280;33994;50.998;5.864;2022-12-29T09:14:08;99879.63;;;9.82;77.48
48204;BME280;33994;50.998;5.864;2022-12-29T09:17:12;99887.44;;;9.82;76.92
48204;BME280;33994;50.998;5.864;2022-12-29T09:20:17;99883.97;;;9.81;76.65
48204;BME280;33994;50.998;5.864;2022-12-29T09:23:20;99880.53;;;9.81;76.43
48204;BME280;33994;50.998;5.864;2022-12-29T09:26:25;99877.94;;;9.79;76.10
48204;BME280;33994;50.998;5.864;2022-12-29T09:29:28;99889.28;;;9.78;76.05
48204;BME280;33994;50.998;5.864;2022-12-29T09:32:31;99893.66;;;9.78;76.03
48204;BME280;33994;50.998;5.864;2022-12-29T09:35:34;99895.47;;;9.74;75.77
48204;BME280;33994;50.998;5.864;2022-12-29T09:38:37;99893.81;;;9.71;75.46
48204;BME280;33994;50.998;5.864;2022-12-29T09:41:46;99883.47;;;9.68;75.05
48204;BME280;33994;50.998;5.864;2022-12-29T09:45:00;99890.50;;;9.65;75.09
48204;BME280;33994;50.998;5.864;2022-12-29T09:48:13;99914.03;;;9.63;75.32
48204;BME280;33994;50.998;5.864;2022-12-29T09:51:21;99894.97;;;9.60;75.26
48204;BME280;33994;50.998;5.864;2022-12-29T09:54:36;99901.09;;;9.59;75.26
48204;BME280;33994;50.998;5.864;2022-12-29T09:57:45;99910.69;;;9.58;75.28
48204;BME280;33994;50.998;5.864;2022-12-29T10:00:53;99913.25;;;9.60;75.36
48204;BME280;33994;50.998;5.864;2022-12-29T10:03:59;99895.81;;;9.62;75.27
48204;BME280;33994;50.998;5.864;2022-12-29T10:07:10;99909.78;;;9.61;74.74
48204;BME280;33994;50.998;5.864;2022-12-29T10:10:30;99909.78;;;9.61;74.72
48204;BME280;33994;50.998;5.864;2022-12-29T10:13:47;99925.44;;;9.61;74.60
48204;BME280;33994;50.998;5.864;2022-12-29T10:17:01;99931.53;;;9.60;74.48
48204;BME280;33994;50.998;5.864;2022-12-29T10:20:26;99932.38;;;9.60;74.21
48204;BME280;33994;50.998;5.864;2022-12-29T10:23:33;99942.88;;;9.59;74.25
48204;BME280;33994;50.998;5.864;2022-12-29T10:26:41;99937.56;;;9.62;73.80
48204;BME280;33994;50.998;5.864;2022-12-29T10:29:49;99948.03;;;9.62;73.78
48204;BME280;33994;50.998;5.864;2022-12-29T10:32:56;99951.50;;;9.62;73.42
48204;BME280;33994;50.998;5.864;2022-12-29T10:36:04;99942.72;;;9.65;73.18
48204;BME280;33994;50.998;5.864;2022-12-29T10:39:19;99970.53;;;9.66;72.81
48204;BME280;33994;50.998;5.864;2022-12-29T10:42:27;99962.66;;;9.69;72.60
48204;BME280;33994;50.998;5.864;2022-12-29T10:45:32;99951.22;;;9.73;72.55
48204;BME280;33994;50.998;5.864;2022-12-29T10:48:36;99956.41;;;9.74;72.20
48204;BME280;33994;50.998;5.864;2022-12-29T10:51:42;99965.91;;;9.77;72.05
48204;BME280;33994;50.998;5.864;2022-12-29T10:54:50;99968.47;;;9.80;72.05
48204;BME280;33994;50.998;5.864;2022-12-29T10:57:56;99962.25;;;9.84;71.88
48204;BME280;33994;50.998;5.864;2022-12-29T11:01:04;99970.94;;;9.85;71.88
48204;BME280;33994;50.998;5.864;2022-12-29T11:04:17;99974.41;;;9.85;71.42
48204;BME280;33994;50.998;5.864;2022-12-29T11:07:24;99990.88;;;9.87;71.54
48204;BME280;33994;50.998;5.864;2022-12-29T11:10:36;99992.56;;;9.90;71.07
48204;BME280;33994;50.998;5.864;2022-12-29T11:13:48;100002.94;;;9.93;70.84
48204;BME280;33994;50.998;5.864;2022-12-29T11:16:58;100007.19;;;9.97;70.86
48204;BME280;33994;50.998;5.864;2022-12-29T11:20:19;100005.38;;;10.01;70.79
48204;BME280;33994;50.998;5.864;2022-12-29T11:23:32;100003.56;;;10.03;70.81
48204;BME280;33994;50.998;5.864;2022-12-29T11:26:35;100013.94;;;10.06;70.54
48204;BME280;33994;50.998;5.864;2022-12-29T11:29:39;99999.09;;;10.08;70.52
48204;BME280;33994;50.998;5.864;2022-12-29T11:32:50;100008.56;;;10.12;70.31
48204;BME280;33994;50.998;5.864;2022-12-29T11:35:57;100018.94;;;10.15;70.14
48204;BME280;33994;50.998;5.864;2022-12-29T11:39:01;100031.03;;;10.19;70.30
48204;BME280;33994;50.998;5.864;2022-12-29T11:42:10;100025.75;;;10.20;70.17
48204;BME280;33994;50.998;5.864;2022-12-29T11:45:16;100041.41;;;10.22;70.35
48204;BME280;33994;50.998;5.864;2022-12-29T11:48:23;100019.59;;;10.23;70.18
48204;BME280;33994;50.998;5.864;2022-12-29T11:51:31;100035.28;;;10.21;70.07
48204;BME280;33994;50.998;5.864;2022-12-29T11:54:37;100037.91;;;10.21;69.95
48204;BME280;33994;50.998;5.864;2022-12-29T11:57:41;100050.16;;;10.19;69.95
48204;BME280;33994;50.998;5.864;2022-12-29T12:00:45;100048.34;;;10.21;69.98
48204;BME280;33994;50.998;5.864;2022-12-29T12:03:54;100044.03;;;10.20;69.75
48204;BME280;33994;50.998;5.864;2022-12-29T12:07:05;100043.22;;;10.18;69.71
48204;BME280;33994;50.998;5.864;2022-12-29T12:10:17;100040.63;;;10.17;69.56
48204;BME280;33994;50.998;5.864;2022-12-29T12:13:25;100045.06;;;10.15;69.15
48204;BME280;33994;50.998;5.864;2022-12-29T12:16:34;100038.09;;;10.15;69.34
48204;BME280;33994;50.998;5.864;2022-12-29T12:19:44;100044.16;;;10.16;69.37
48204;BME280;33994;50.998;5.864;2022-12-29T12:22:55;100045.09;;;10.13;69.52
48204;BME280;33994;50.998;5.864;2022-12-29T12:26:08;100045.06;;;10.15;69.52
48204;BME280;33994;50.998;5.864;2022-12-29T12:29:15;100048.56;;;10.14;69.73
48204;BME280;33994;50.998;5.864;2022-12-29T12:32:24;100046.81;;;10.14;69.47
48204;BME280;33994;50.998;5.864;2022-12-29T12:35:38;100045.13;;;10.12;68.97
48204;BME280;33994;50.998;5.864;2022-12-29T12:38:51;100053.88;;;10.11;69.04
48204;BME280;33994;50.998;5.864;2022-12-29T12:42:08;100043.38;;;10.12;69.15
48204;BME280;33994;50.998;5.864;2022-12-29T12:45:31;100043.38;;;10.12;69.23
48204;BME280;33994;50.998;5.864;2022-12-29T12:48:48;100042.53;;;10.12;69.21
48204;BME280;33994;50.998;5.864;2022-12-29T12:52:00;100045.09;;;10.13;69.56
48204;BME280;33994;50.998;5.864;2022-12-29T12:55:22;100052.06;;;10.14;69.29
48204;BME280;33994;50.998;5.864;2022-12-29T12:58:37;100044.09;;;10.17;69.27
48204;BME280;33994;50.998;5.864;2022-12-29T13:01:50;100045.84;;;10.18;69.46
48204;BME280;33994;50.998;5.864;2022-12-29T13:05:24;100048.47;;;10.18;69.27
48204;BME280;33994;50.998;5.864;2022-12-29T13:08:45;100052.72;;;10.21;69.52
48204;BME280;33994;50.998;5.864;2022-12-29T13:12:07;100055.31;;;10.22;69.74
48204;BME280;33994;50.998;5.864;2022-12-29T13:15:35;100050.91;;;10.25;69.62
48204;BME280;33994;50.998;5.864;2022-12-29T13:18:48;100057.94;;;10.21;69.72
48204;BME280;33994;50.998;5.864;2022-12-29T13:22:02;100048.34;;;10.21;69.96
48204;BME280;33994;50.998;5.864;2022-12-29T13:25:24;100044.94;;;10.19;69.86
48204;BME280;33994;50.998;5.864;2022-12-29T13:28:32;100051.88;;;10.20;70.13
48204;BME280;33994;50.998;5.864;2022-12-29T13:31:47;100050.13;;;10.21;70.05
48204;BME280;33994;50.998;5.864;2022-12-29T13:34:59;100061.53;;;10.17;70.15
48204;BME280;33994;50.998;5.864;2022-12-29T13:38:12;100057.16;;;10.19;70.31
48204;BME280;33994;50.998;5.864;2022-12-29T13:41:27;100061.53;;;10.17;70.21
48204;BME280;33994;50.998;5.864;2022-12-29T13:44:35;100064.22;;;10.15;70.24
48204;BME280;33994;50.998;5.864;2022-12-29T13:47:44;100077.28;;;10.15;70.28
48204;BME280;33994;50.998;5.864;2022-12-29T13:50:53;100074.69;;;10.14;70.38
48204;BME280;33994;50.998;5.864;2022-12-29T13:54:09;100061.78;;;10.08;70.03
48204;BME280;33994;50.998;5.864;2022-12-29T13:57:28;100078.44;;;10.04;69.86
48204;BME280;33994;50.998;5.864;2022-12-29T14:00:41;100079.31;;;10.03;70.03
48204;BME280;33994;50.998;5.864;2022-12-29T14:03:48;100074.13;;;10.01;70.30
48204;BME280;33994;50.998;5.864;2022-12-29T14:07:01;100089.88;;;9.98;70.09
48204;BME280;33994;50.998;5.864;2022-12-29T14:10:06;100090.66;;;10.02;70.26
48204;BME280;33994;50.998;5.864;2022-12-29T14:13:13;100097.69;;;10.00;70.21
48204;BME280;33994;50.998;5.864;2022-12-29T14:16:27;100086.47;;;9.96;70.28
48204;BME280;33994;50.998;5.864;2022-12-29T14:19:32;100109.13;;;9.95;70.37
48204;BME280;33994;50.998;5.864;2022-12-29T14:22:56;100099.53;;;9.94;70.01
48204;BME280;33994;50.998;5.864;2022-12-29T14:26:10;100107.38;;;9.94;69.87
48204;BME280;33994;50.998;5.864;2022-12-29T14:29:43;100106.47;;;9.97;69.94
48204;BME280;33994;50.998;5.864;2022-12-29T14:33:01;100099.53;;;9.94;69.94
48204;BME280;33994;50.998;5.864;2022-12-29T14:36:21;100109.19;;;9.92;69.68
48204;BME280;33994;50.998;5.864;2022-12-29T14:39:32;100121.41;;;9.90;69.60
48204;BME280;33994;50.998;5.864;2022-12-29T14:42:38;100130.22;;;9.86;69.61
48204;BME280;33994;50.998;5.864;2022-12-29T14:45:52;100132.06;;;9.81;71.21
48204;BME280;33994;50.998;5.864;2022-12-29T14:48:58;100135.59;;;9.79;71.71
48204;BME280;33994;50.998;5.864;2022-12-29T14:52:07;100133.94;;;9.76;72.62
48204;BME280;33994;50.998;5.864;2022-12-29T14:55:37;100140.16;;;9.70;72.56
48204;BME280;33994;50.998;5.864;2022-12-29T14:58:46;100135.84;;;9.68;72.35
48204;BME280;33994;50.998;5.864;2022-12-29T15:01:53;100135.84;;;9.68;72.38
48204;BME280;33994;50.998;5.864;2022-12-29T15:04:59;100131.53;;;9.67;72.60
48204;BME280;33994;50.998;5.864;2022-12-29T15:08:04;100121.97;;;9.66;72.50
48204;BME280;33994;50.998;5.864;2022-12-29T15:11:13;100132.44;;;9.64;71.97
48204;BME280;33994;50.998;5.864;2022-12-29T15:14:32;100127.25;;;9.63;71.50
48204;BME280;33994;50.998;5.864;2022-12-29T15:17:36;100129.97;;;9.58;71.26
48204;BME280;33994;50.998;5.864;2022-12-29T15:20:39;100144.78;;;9.58;71.31
48204;BME280;33994;50.998;5.864;2022-12-29T15:23:44;100142.19;;;9.56;71.31
48204;BME280;33994;50.998;5.864;2022-12-29T15:26:50;100149.22;;;9.54;70.94
48204;BME280;33994;50.998;5.864;2022-12-29T15:29:58;100155.34;;;9.53;70.81
48204;BME280;33994;50.998;5.864;2022-12-29T15:33:17;100153.69;;;9.47;70.63
48204;BME280;33994;50.998;5.864;2022-12-29T15:36:23;100151.19;;;9.43;70.97
48204;BME280;33994;50.998;5.864;2022-12-29T15:39:28;100149.53;;;9.39;71.01
48204;BME280;33994;50.998;5.864;2022-12-29T15:42:46;100143.53;;;9.34;71.02
48204;BME280;33994;50.998;5.864;2022-12-29T15:45:53;100147.03;;;9.34;71.28
48204;BME280;33994;50.998;5.864;2022-12-29T15:48:59;100154.06;;;9.29;70.79
48204;BME280;33994;50.998;5.864;2022-12-29T15:52:06;100161.97;;;9.26;70.75
48204;BME280;33994;50.998;5.864;2022-12-29T15:55:19;100169.84;;;9.23;70.92
48204;BME280;33994;50.998;5.864;2022-12-29T15:58:24;100167.28;;;9.20;71.05
48204;BME280;33994;50.998;5.864;2022-12-29T16:01:30;100168.22;;;9.16;71.43
48204;BME280;33994;50.998;5.864;2022-12-29T16:04:35;100188.22;;;9.17;71.49
48204;BME280;33994;50.998;5.864;2022-12-29T16:07:38;100187.31;;;9.18;71.85
48204;BME280;33994;50.998;5.864;2022-12-29T16:10:42;100187.38;;;9.15;72.42
48204;BME280;33994;50.998;5.864;2022-12-29T16:13:48;100193.56;;;9.09;72.72
48204;BME280;33994;50.998;5.864;2022-12-29T16:16:52;100193.66;;;9.05;73.17
48204;BME280;33994;50.998;5.864;2022-12-29T16:19:59;100193.72;;;9.01;73.92
48204;BME280;33994;50.998;5.864;2022-12-29T16:23:02;100208.53;;;8.99;74.17
48204;BME280;33994;50.998;5.864;2022-12-29T16:26:14;100201.59;;;8.98;74.84
48204;BME280;33994;50.998;5.864;2022-12-29T16:29:20;100204.19;;;8.98;74.97
48204;BME280;33994;50.998;5.864;2022-12-29T16:32:26;100201.59;;;9.00;75.15